Time;durP1;ratioP1;P1;durP2;ratioP2;P2;SDS_P1;SDS_P2;PMS_P1;PMS_P2;Temp;Humidity;BMP_temperature;BMP_pressure;BME280_temperature;BME280_humidity;BME280_pressure;Samples;Min_cycle;Max_cycle;Signal;HPM_P1;HPM_P2
2021/04/03 00:02:34;;;;;;;18.70;13.90;;;12.20;79.90;;;;;;6250473;28;20478;-58
2021/04/03 00:05:37;;;;;;;15.53;13.60;;;12.00;81.00;;;;;;6249590;28;20472;-58
2021/04/03 00:08:39;;;;;;;15.80;14.10;;;12.00;82.20;;;;;;6248815;28;20459;-58
2021/04/03 00:11:42;;;;;;;19.07;16.60;;;12.00;84.90;;;;;;6248507;28;20545;-58
2021/04/03 00:14:45;;;;;;;20.40;14.30;;;11.80;88.90;;;;;;6248394;28;20475;-58
2021/04/03 00:17:47;;;;;;;18.90;14.83;;;11.80;90.10;;;;;;6248230;28;20493;-58
2021/04/03 00:20:49;;;;;;;24.30;16.93;;;11.90;90.70;;;;;;6248353;28;20799;-58
2021/04/03 00:23:51;;;;;;;19.80;17.20;;;11.90;91.30;;;;;;6249223;28;20996;-58
2021/04/03 00:26:55;;;;;;;18.83;16.83;;;11.80;92.20;;;;;;6250355;28;20470;-58
2021/04/03 00:29:57;;;;;;;18.07;15.50;;;11.70;92.80;;;;;;6250375;28;20468;-58
2021/04/03 00:33:02;;;;;;;22.73;17.20;;;11.60;93.60;;;;;;6250127;28;20475;-58
2021/04/03 00:36:04;;;;;;;19.80;16.90;;;11.70;93.90;;;;;;6250101;28;20494;-58
2021/04/03 00:39:07;;;;;;;19.07;16.77;;;11.60;94.40;;;;;;6250232;28;21023;-58
2021/04/03 00:42:15;;;;;;;21.10;17.10;;;11.70;94.70;;;;;;6250012;28;20482;-58
2021/04/03 00:45:21;;;;;;;21.13;16.30;;;11.60;95.10;;;;;;6249849;28;20788;-58
2021/04/03 00:48:23;;;;;;;18.30;15.00;;;11.50;95.60;;;;;;6249713;28;20446;-58
2021/04/03 00:51:25;;;;;;;20.60;15.90;;;11.40;96.20;;;;;;6241008;28;20912;-58
2021/04/03 00:54:27;;;;;;;20.73;16.83;;;11.30;96.40;;;;;;6249534;28;20478;-58
2021/04/03 00:57:30;;;;;;;22.70;17.77;;;11.30;96.90;;;;;;6249769;28;20469;-58
2021/04/03 01:00:32;;;;;;;22.90;17.50;;;11.20;97.20;;;;;;6249889;28;20913;-58
2021/04/03 01:03:35;;;;;;;20.90;17.93;;;11.10;98.10;;;;;;6249684;28;20929;-58
2021/04/03 01:06:37;;;;;;;20.73;16.93;;;11.10;97.90;;;;;;6250174;28;20482;-58
2021/04/03 01:09:40;;;;;;;22.37;17.37;;;11.10;97.90;;;;;;6250523;28;20463;-58
2021/04/03 01:12:56;;;;;;;18.97;15.73;;;11.10;98.10;;;;;;6249752;28;20991;-58
2021/04/03 01:16:05;;;;;;;21.43;16.20;;;11.10;98.10;;;;;;6251081;28;20482;-58
2021/04/03 01:19:29;;;;;;;23.40;17.10;;;11.10;98.10;;;;;;6254877;28;20467;-58
2021/04/03 01:23:10;;;;;;;18.10;16.13;;;11.20;97.90;;;;;;6254618;28;20569;-58
2021/04/03 01:26:44;;;;;;;22.50;17.67;;;11.10;98.20;;;;;;6248578;28;20806;-58
2021/04/03 01:29:54;;;;;;;23.73;18.03;;;11.20;98.20;;;;;;6253363;28;20482;-58
2021/04/03 01:33:01;;;;;;;24.10;17.10;;;11.20;98.00;;;;;;6254636;28;20471;-58
2021/04/03 01:36:10;;;;;;;21.47;16.90;;;11.30;98.00;;;;;;6254462;28;20467;-57
2021/04/03 01:39:16;;;;;;;22.37;17.87;;;11.30;97.80;;;;;;6253996;28;20487;-57
2021/04/03 01:42:21;;;;;;;20.93;16.70;;;11.30;98.20;;;;;;6254405;28;20434;-58
2021/04/03 01:45:25;;;;;;;19.70;16.37;;;11.30;97.90;;;;;;6253909;28;20461;-57
2021/04/03 01:48:32;;;;;;;22.80;18.60;;;11.40;98.00;;;;;;6253825;28;20415;-57
2021/04/03 01:51:35;;;;;;;21.80;17.60;;;11.40;97.70;;;;;;6253758;28;20803;-57
2021/04/03 01:54:39;;;;;;;24.90;17.50;;;11.30;98.40;;;;;;6253429;28;20957;-57
2021/04/03 01:57:46;;;;;;;23.40;17.83;;;11.30;98.70;;;;;;6253930;28;20490;-58
2021/04/03 02:00:50;;;;;;;20.97;17.00;;;11.30;98.80;;;;;;6253645;28;20982;-57
2021/04/03 02:03:55;;;;;;;19.20;16.00;;;11.30;98.90;;;;;;6253285;28;20823;-57
2021/04/03 02:06:58;;;;;;;20.17;16.37;;;11.40;99.10;;;;;;6253846;28;20489;-58
2021/04/03 02:10:01;;;;;;;23.43;19.60;;;11.40;99.10;;;;;;6253986;28;20485;-57
2021/04/03 02:13:05;;;;;;;27.90;22.80;;;11.50;99.10;;;;;;6253288;28;20550;-58
2021/04/03 02:16:09;;;;;;;24.73;20.43;;;11.50;99.00;;;;;;6253308;28;20972;-57
2021/04/03 02:19:13;;;;;;;23.97;17.60;;;11.50;98.90;;;;;;6253066;28;20471;-57
2021/04/03 02:22:16;;;;;;;21.53;17.03;;;11.50;99.30;;;;;;6253099;28;20482;-58
2021/04/03 02:25:18;;;;;;;19.90;17.50;;;11.50;99.20;;;;;;6253141;28;20471;-58
2021/04/03 02:28:21;;;;;;;19.50;16.03;;;11.40;98.70;;;;;;6252398;28;20467;-57
2021/04/03 02:31:24;;;;;;;24.30;17.20;;;11.40;98.70;;;;;;6253395;28;20478;-57
2021/04/03 02:34:27;;;;;;;19.23;16.67;;;11.30;98.70;;;;;;6252866;28;20490;-58
2021/04/03 02:37:53;;;;;;;19.87;16.43;;;11.30;98.70;;;;;;6253047;28;20464;-58
2021/04/03 02:40:55;;;;;;;18.43;15.90;;;11.30;98.70;;;;;;6252851;28;20494;-58
2021/04/03 02:44:07;;;;;;;21.73;15.90;;;11.40;98.80;;;;;;6252541;28;20490;-58
2021/04/03 02:47:15;;;;;;;16.77;14.80;;;11.30;98.60;;;;;;6252731;28;20478;-61
2021/04/03 02:50:20;;;;;;;23.57;17.70;;;11.30;98.60;;;;;;6252586;28;20494;-58
2021/04/03 02:53:28;;;;;;;23.40;17.17;;;11.20;98.70;;;;;;6252607;28;20491;-58
2021/04/03 02:56:31;;;;;;;23.10;18.03;;;11.10;98.70;;;;;;6252517;28;20467;-58
2021/04/03 02:59:38;;;;;;;20.97;16.57;;;11.00;99.30;;;;;;6252211;28;20479;-58
2021/04/03 03:02:45;;;;;;;20.17;16.00;;;11.00;99.40;;;;;;6252123;28;20483;-58
2021/04/03 03:05:50;;;;;;;18.13;16.13;;;11.00;99.30;;;;;;6252513;28;20476;-57
2021/04/03 03:08:53;;;;;;;17.50;14.50;;;11.10;99.00;;;;;;6251995;28;20467;-60
2021/04/03 03:11:58;;;;;;;18.63;15.40;;;11.10;98.60;;;;;;6251840;28;20471;-58
2021/04/03 03:15:04;;;;;;;17.60;14.53;;;11.10;98.70;;;;;;6251749;28;20476;-57
2021/04/03 03:18:08;;;;;;;20.80;16.10;;;11.10;98.70;;;;;;6251976;28;20471;-58
2021/04/03 03:21:11;;;;;;;18.70;15.20;;;11.10;98.60;;;;;;6251791;28;20968;-58
2021/04/03 03:24:15;;;;;;;19.33;16.17;;;11.10;98.50;;;;;;6251361;28;20475;-61
2021/04/03 03:27:18;;;;;;;22.00;16.43;;;11.00;98.60;;;;;;6251723;28;20451;-61
2021/04/03 03:30:24;;;;;;;15.77;13.53;;;11.00;98.90;;;;;;6251462;28;20762;-61
2021/04/03 03:33:28;;;;;;;18.20;15.37;;;11.00;98.90;;;;;;6251608;28;20466;-61
2021/04/03 03:36:31;;;;;;;16.77;14.97;;;11.00;98.80;;;;;;6251686;28;20440;-61
2021/04/03 03:39:33;;;;;;;18.20;15.20;;;10.90;98.70;;;;;;6251077;28;20551;-59
2021/04/03 03:42:35;;;;;;;16.40;14.70;;;10.90;98.50;;;;;;6251147;28;20459;-59
2021/04/03 03:45:37;;;;;;;18.30;15.40;;;10.80;98.50;;;;;;6251539;28;20459;-59
2021/04/03 03:48:40;;;;;;;19.00;14.90;;;10.80;98.70;;;;;;6250956;28;20481;-59
2021/04/03 03:51:43;;;;;;;16.90;15.20;;;10.80;98.90;;;;;;6251438;28;20471;-60
2021/04/03 03:54:45;;;;;;;17.33;14.53;;;10.80;98.50;;;;;;6250781;28;20471;-58
2021/04/03 03:57:47;;;;;;;17.73;15.83;;;10.70;98.40;;;;;;6246622;28;20477;-61
2021/04/03 04:00:50;;;;;;;20.00;15.80;;;10.70;98.60;;;;;;6250815;28;20517;-60
2021/04/03 04:03:53;;;;;;;18.60;15.87;;;10.60;98.70;;;;;;6250940;28;20471;-59
2021/04/03 04:06:55;;;;;;;18.00;15.03;;;10.60;99.00;;;;;;6250928;28;20490;-59
2021/04/03 04:09:58;;;;;;;17.73;15.80;;;10.50;99.30;;;;;;6250884;28;20493;-60
2021/04/03 04:13:01;;;;;;;19.43;16.43;;;10.50;99.20;;;;;;6250830;28;20788;-59
2021/04/03 04:16:04;;;;;;;18.10;15.37;;;10.50;99.00;;;;;;6250482;28;20463;-59
2021/04/03 04:19:07;;;;;;;19.90;15.30;;;10.50;99.10;;;;;;6250206;28;20475;-59
2021/04/03 04:22:09;;;;;;;16.83;15.00;;;10.50;99.10;;;;;;6250653;28;20497;-59
2021/04/03 04:25:12;;;;;;;20.90;16.60;;;10.60;99.10;;;;;;6250376;28;20471;-59
2021/04/03 04:28:15;;;;;;;17.93;15.50;;;10.60;99.10;;;;;;6250536;28;20479;-59
2021/04/03 04:31:17;;;;;;;16.90;14.70;;;10.60;99.30;;;;;;6250145;28;20894;-59
2021/04/03 04:34:20;;;;;;;19.77;15.83;;;10.60;99.40;;;;;;6250526;28;20481;-58
2021/04/03 04:37:22;;;;;;;19.13;16.13;;;10.40;99.90;;;;;;6250351;28;20802;-61
2021/04/03 04:40:27;;;;;;;19.13;16.13;;;10.50;99.90;;;;;;6250050;28;20494;-61
2021/04/03 04:43:29;;;;;;;24.53;19.50;;;10.50;99.90;;;;;;6250234;28;20475;-60
2021/04/03 04:46:32;;;;;;;19.00;16.47;;;10.50;99.60;;;;;;6250564;28;20475;-58
2021/04/03 04:49:35;;;;;;;20.00;17.23;;;10.50;99.70;;;;;;6249913;28;20474;-59
2021/04/03 04:52:37;;;;;;;19.83;16.57;;;10.60;99.80;;;;;;6249591;28;20475;-61
2021/04/03 04:55:40;;;;;;;23.07;17.30;;;10.60;99.90;;;;;;6249963;28;20526;-59
2021/04/03 04:58:42;;;;;;;22.40;18.40;;;10.60;99.70;;;;;;6249477;28;20486;-59
2021/04/03 05:01:44;;;;;;;22.07;19.00;;;10.70;99.60;;;;;;6245202;28;20991;-60
2021/04/03 05:04:47;;;;;;;22.17;17.27;;;10.70;99.60;;;;;;6249760;28;20478;-59
2021/04/03 05:07:49;;;;;;;25.17;17.83;;;10.80;99.60;;;;;;6249953;28;20466;-59
2021/04/03 05:10:52;;;;;;;20.23;16.67;;;10.70;99.50;;;;;;6249470;28;20472;-60
2021/04/03 05:13:54;;;;;;;20.27;16.23;;;10.70;99.20;;;;;;6249399;28;20818;-59
2021/04/03 05:16:56;;;;;;;19.90;17.60;;;10.70;98.60;;;;;;6249681;28;20475;-59
2021/04/03 05:19:59;;;;;;;20.67;17.70;;;10.80;98.60;;;;;;6249812;28;20475;-59
2021/04/03 05:23:01;;;;;;;20.77;17.27;;;10.80;98.70;;;;;;6249280;28;20470;-59
2021/04/03 05:26:03;;;;;;;24.47;19.07;;;10.90;98.70;;;;;;6249444;28;20486;-59
2021/04/03 05:29:06;;;;;;;20.63;16.83;;;10.90;98.80;;;;;;6249425;28;20998;-58
2021/04/03 05:32:08;;;;;;;20.70;17.27;;;10.90;98.70;;;;;;6249451;28;20967;-60
2021/04/03 05:35:13;;;;;;;19.47;16.70;;;10.90;98.80;;;;;;6249664;28;20999;-59
2021/04/03 05:38:15;;;;;;;19.70;17.10;;;11.00;98.90;;;;;;6249230;28;20471;-59
2021/04/03 05:41:18;;;;;;;17.60;15.47;;;11.00;98.30;;;;;;6249187;28;20466;-59
2021/04/03 05:44:22;;;;;;;18.73;16.27;;;11.20;98.20;;;;;;6249207;28;20479;-59
2021/04/03 05:47:25;;;;;;;21.30;17.43;;;11.30;98.10;;;;;;6249160;28;20479;-59
2021/04/03 05:50:31;;;;;;;20.80;17.47;;;11.40;98.10;;;;;;6249144;28;20467;-59
2021/04/03 05:53:36;;;;;;;20.80;16.60;;;11.40;98.10;;;;;;6249125;28;20562;-58
2021/04/03 05:56:38;;;;;;;24.50;18.97;;;11.50;98.40;;;;;;6249175;28;20467;-60
2021/04/03 05:59:42;;;;;;;19.63;17.20;;;11.50;98.50;;;;;;6249061;28;20625;-60
2021/04/03 06:02:44;;;;;;;21.80;18.50;;;11.50;98.50;;;;;;6249635;28;20479;-59
2021/04/03 06:05:49;;;;;;;22.87;18.53;;;11.50;98.70;;;;;;6249420;28;20488;-58
2021/04/03 06:08:52;;;;;;;24.83;18.07;;;11.50;98.80;;;;;;6253277;28;20484;-58
2021/04/03 06:11:54;;;;;;;20.50;17.90;;;11.60;98.90;;;;;;6253414;28;20475;-59
2021/04/03 06:14:59;;;;;;;21.17;18.40;;;11.70;98.90;;;;;;6253664;28;20474;-59
2021/04/03 06:18:07;;;;;;;22.60;18.57;;;11.80;98.70;;;;;;6253050;28;20968;-59
2021/04/03 06:21:11;;;;;;;23.67;19.50;;;12.10;98.50;;;;;;6252960;28;20475;-58
2021/04/03 06:24:21;;;;;;;20.47;17.50;;;12.10;98.60;;;;;;6252722;28;21011;-58
2021/04/03 06:27:23;;;;;;;19.47;17.47;;;12.10;98.70;;;;;;6253567;28;20444;-58
2021/04/03 06:30:31;;;;;;;18.90;15.93;;;12.30;97.60;;;;;;6252860;28;20450;-58
2021/04/03 06:33:34;;;;;;;19.00;16.00;;;12.40;96.00;;;;;;6253785;28;20463;-58
2021/04/03 06:36:45;;;;;;;17.27;14.87;;;12.20;95.60;;;;;;6252849;28;20459;-59
2021/04/03 06:39:58;;;;;;;19.20;16.33;;;12.50;95.30;;;;;;6252810;28;20479;-59
2021/04/03 06:43:01;;;;;;;17.70;15.87;;;12.70;94.60;;;;;;6252683;28;20999;-59
2021/04/03 06:46:22;;;;;;;17.77;15.87;;;12.70;94.60;;;;;;6252423;28;20831;-60
2021/04/03 06:49:25;;;;;;;17.77;15.20;;;12.80;94.30;;;;;;6252773;28;20546;-59
2021/04/03 06:52:28;;;;;;;17.50;14.87;;;13.10;93.70;;;;;;6252535;28;20996;-58
2021/04/03 06:55:31;;;;;;;21.57;16.63;;;13.20;93.00;;;;;;6252488;28;20475;-58
2021/04/03 06:58:34;;;;;;;17.97;15.10;;;13.30;92.50;;;;;;6252324;28;20471;-58
2021/04/03 07:01:55;;;;;;;18.90;16.10;;;13.40;92.20;;;;;;6252409;28;20478;-58
2021/04/03 07:05:00;;;;;;;17.73;15.90;;;13.20;91.90;;;;;;6252068;28;20795;-58
2021/04/03 07:08:04;;;;;;;17.70;15.20;;;13.00;91.90;;;;;;6252095;28;20487;-58
2021/04/03 07:11:08;;;;;;;18.27;16.07;;;13.00;92.00;;;;;;6252142;28;20467;-58
2021/04/03 07:14:11;;;;;;;16.70;14.67;;;12.50;92.30;;;;;;6251352;28;20475;-58
2021/04/03 07:17:15;;;;;;;16.47;14.40;;;12.40;93.00;;;;;;6251794;28;20968;-58
2021/04/03 07:20:19;;;;;;;15.70;14.10;;;12.50;92.90;;;;;;6251721;28;20479;-58
2021/04/03 07:23:23;;;;;;;16.77;15.03;;;12.50;92.80;;;;;;6251532;28;20815;-58
2021/04/03 07:26:25;;;;;;;14.87;13.37;;;12.60;92.20;;;;;;6252006;28;20471;-58
2021/04/03 07:29:48;;;;;;;14.70;13.30;;;13.10;91.60;;;;;;6251484;28;20475;-58
2021/04/03 07:33:07;;;;;;;13.60;12.20;;;14.50;89.60;;;;;;6251379;28;20503;-59
2021/04/03 07:36:10;;;;;;;14.93;12.73;;;15.00;80.50;;;;;;6251342;28;20478;-60
2021/04/03 07:39:36;;;;;;;15.03;13.57;;;15.40;77.60;;;;;;6240301;28;20497;-60
2021/04/03 07:42:40;;;;;;;13.60;11.57;;;16.10;73.90;;;;;;6245615;28;20921;-59
2021/04/03 07:45:47;;;;;;;14.53;12.70;;;15.70;70.80;;;;;;6234526;28;20472;-59
2021/04/03 07:48:51;;;;;;;14.83;12.10;;;15.20;72.00;;;;;;6231888;28;20480;-59
2021/04/03 07:51:54;;;;;;;12.90;11.70;;;15.30;73.00;;;;;;6230892;28;20472;-59
2021/04/03 07:54:57;;;;;;;12.90;11.60;;;15.50;69.30;;;;;;6248096;28;20479;-59
2021/04/03 07:58:23;;;;;;;11.60;10.40;;;15.50;67.60;;;;;;6247646;28;20471;-59
2021/04/03 08:01:29;;;;;;;9.73;8.73;;;17.10;63.40;;;;;;6243215;28;20532;-60
2021/04/03 08:04:34;;;;;;;9.53;8.73;;;18.60;56.30;;;;;;6251205;28;20556;-59
2021/04/03 08:07:36;;;;;;;10.90;9.90;;;18.90;51.00;;;;;;6250980;28;20474;-60
2021/04/03 08:10:39;;;;;;;11.50;10.37;;;19.30;52.00;;;;;;6250401;28;20224;-59
2021/04/03 08:13:44;;;;;;;12.73;10.40;;;20.50;49.10;;;;;;6241062;28;20251;-60
2021/04/03 08:16:46;;;;;;;12.27;11.07;;;20.60;46.80;;;;;;6250784;28;20240;-60
2021/04/03 08:19:49;;;;;;;3.20;3.00;;;20.10;46.10;;;;;;6250541;28;20567;-59
2021/04/03 08:23:01;;;;;;;3.70;3.27;;;19.20;36.30;;;;;;6250659;28;20232;-60
2021/04/03 08:26:06;;;;;;;3.07;2.67;;;17.80;35.20;;;;;;6248799;28;20232;-60
2021/04/03 08:29:09;;;;;;;4.70;2.80;;;17.00;36.70;;;;;;6243381;28;20957;-59
2021/04/03 08:32:11;;;;;;;3.40;3.10;;;17.10;37.90;;;;;;6237818;28;20477;-59
2021/04/03 08:35:13;;;;;;;3.17;2.33;;;17.00;36.40;;;;;;6237219;28;20483;-60
2021/04/03 08:38:22;;;;;;;3.33;3.10;;;17.40;35.70;;;;;;6238795;28;20463;-61
2021/04/03 08:41:28;;;;;;;3.40;2.00;;;17.10;36.00;;;;;;6235908;28;20468;-60
2021/04/03 08:44:31;;;;;;;3.17;2.90;;;17.60;36.40;;;;;;6248104;28;20467;-60
2021/04/03 08:47:33;;;;;;;3.00;2.47;;;18.10;35.40;;;;;;6250469;28;20490;-60
2021/04/03 08:50:36;;;;;;;3.83;2.50;;;17.60;36.20;;;;;;6236177;28;20478;-59
2021/04/03 08:53:39;;;;;;;3.40;3.10;;;17.00;37.00;;;;;;6235516;28;21017;-60
2021/04/03 08:56:43;;;;;;;3.63;3.00;;;17.20;37.80;;;;;;6236150;28;20463;-60
2021/04/03 08:59:48;;;;;;;2.33;2.13;;;19.50;36.10;;;;;;6236274;28;20491;-63
2021/04/03 09:02:53;;;;;;;2.60;2.40;;;22.50;32.30;;;;;;6234521;28;20224;-62
2021/04/03 09:05:55;;;;;;;2.60;2.40;;;26.00;28.90;;;;;;6236156;28;20342;-61
2021/04/03 09:09:07;;;;;;;2.90;2.70;;;28.60;25.00;;;;;;6236890;28;20234;-61
2021/04/03 09:12:10;;;;;;;2.90;2.70;;;30.20;23.40;;;;;;6246371;28;20228;-61
2021/04/03 09:15:15;;;;;;;1.92;1.73;;;32.30;20.80;;;;;;6224732;28;20247;-62
2021/04/03 09:18:17;;;;;;;2.90;2.67;;;33.60;19.80;;;;;;6224803;28;20227;-61
2021/04/03 09:21:20;;;;;;;2.42;2.22;;;34.10;19.00;;;;;;6229735;28;20649;-61
2021/04/03 09:24:36;;;;;;;2.28;1.92;;;35.60;17.50;;;;;;6249196;28;20231;-61
2021/04/03 09:27:40;;;;;;;2.42;1.92;;;35.80;16.40;;;;;;6240410;28;20227;-61
2021/04/03 09:30:44;;;;;;;2.53;1.90;;;36.70;15.60;;;;;;6245067;28;20234;-61
2021/04/03 09:33:47;;;;;;;2.42;1.98;;;37.50;15.20;;;;;;6249482;28;20334;-62
2021/04/03 09:36:50;;;;;;;1.60;1.50;;;36.30;14.80;;;;;;6242346;28;20236;-61
2021/04/03 09:39:54;;;;;;;1.80;1.60;;;35.20;15.20;;;;;;6239618;28;20242;-60
2021/04/03 09:42:57;;;;;;;2.97;1.67;;;35.80;14.60;;;;;;6240641;28;20239;-60
2021/04/03 09:45:59;;;;;;;3.17;1.63;;;35.70;14.30;;;;;;6233600;28;20225;-61
2021/04/03 09:49:02;;;;;;;2.72;1.50;;;35.30;14.50;;;;;;6243045;28;20228;-60
2021/04/03 09:52:05;;;;;;;1.80;1.48;;;35.70;14.60;;;;;;6252827;28;20578;-60
2021/04/03 09:55:09;;;;;;;1.83;1.33;;;36.90;13.90;;;;;;6251954;28;20365;-60
2021/04/03 09:58:12;;;;;;;1.52;1.42;;;35.70;14.20;;;;;;6251572;28;20958;-61
2021/04/03 10:01:14;;;;;;;1.52;0.95;;;34.50;15.00;;;;;;6227842;28;20235;-60
2021/04/03 10:04:17;;;;;;;1.25;0.90;;;33.70;14.30;;;;;;6248189;28;20231;-60
2021/04/03 10:07:19;;;;;;;1.10;1.00;;;31.60;14.70;;;;;;6251238;28;20235;-60
2021/04/03 10:10:23;;;;;;;1.75;1.13;;;29.80;17.10;;;;;;6250297;28;20369;-59
2021/04/03 10:13:26;;;;;;;1.77;1.57;;;29.00;17.50;;;;;;6240923;28;20236;-61
2021/04/03 10:16:29;;;;;;;1.37;1.20;;;27.50;17.80;;;;;;6226698;28;20228;-58
2021/04/03 10:19:31;;;;;;;2.33;1.10;;;25.90;18.90;;;;;;6222085;28;20232;-58
2021/04/03 10:22:33;;;;;;;2.70;1.23;;;24.50;19.90;;;;;;6226333;28;20236;-59
2021/04/03 10:25:35;;;;;;;1.27;1.17;;;23.70;20.90;;;;;;6226452;28;20232;-60
2021/04/03 10:28:39;;;;;;;1.30;1.10;;;22.80;21.10;;;;;;6224438;28;20229;-60
2021/04/03 10:31:41;;;;;;;4.83;1.83;;;22.30;21.50;;;;;;6224413;28;20741;-59
2021/04/03 10:34:43;;;;;;;2.23;1.50;;;21.50;21.50;;;;;;6224247;28;20229;-59
2021/04/03 10:37:45;;;;;;;4.23;1.27;;;20.10;22.10;;;;;;6224662;28;20239;-59
2021/04/03 10:40:48;;;;;;;2.77;1.40;;;18.80;23.20;;;;;;6224404;28;20233;-60
2021/04/03 10:43:51;;;;;;;1.20;1.10;;;18.20;25.10;;;;;;6226378;28;20228;-60
2021/04/03 10:46:53;;;;;;;2.30;1.40;;;18.20;24.80;;;;;;6228241;28;20239;-59
2021/04/03 10:49:55;;;;;;;1.60;1.50;;;18.40;24.90;;;;;;6227850;28;20225;-59
2021/04/03 10:52:58;;;;;;;1.57;1.47;;;18.30;23.70;;;;;;6228514;28;20248;-59
2021/04/03 10:56:00;;;;;;;1.60;1.50;;;17.90;25.00;;;;;;6228426;28;20583;-59
2021/04/03 10:59:03;;;;;;;1.20;1.10;;;17.70;25.20;;;;;;6227968;28;20467;-59
2021/04/03 11:02:05;;;;;;;2.00;1.20;;;17.80;25.50;;;;;;6228129;28;20483;-59
2021/04/03 11:05:09;;;;;;;1.83;1.40;;;17.90;25.20;;;;;;6228035;28;20924;-60
2021/04/03 11:08:11;;;;;;;2.50;2.30;;;18.10;23.90;;;;;;6227374;28;20476;-60
2021/04/03 11:11:14;;;;;;;2.57;1.20;;;17.90;23.90;;;;;;6228014;28;20472;-59
2021/04/03 11:14:17;;;;;;;1.00;0.83;;;18.10;24.00;;;;;;6227218;28;20494;-59
2021/04/03 11:17:19;;;;;;;5.37;1.27;;;18.60;23.20;;;;;;6227994;28;20483;-60
2021/04/03 11:20:21;;;;;;;1.30;1.20;;;18.40;22.50;;;;;;6227269;28;20233;-60
2021/04/03 11:23:23;;;;;;;1.23;1.00;;;18.30;23.50;;;;;;6227277;28;20237;-58
2021/04/03 11:26:26;;;;;;;1.27;1.17;;;18.00;23.80;;;;;;6218918;28;20494;-59
2021/04/03 11:29:28;;;;;;;1.10;1.00;;;17.90;23.70;;;;;;6226727;28;20244;-58
2021/04/03 11:32:31;;;;;;;1.30;1.20;;;17.70;23.90;;;;;;6226925;28;20487;-60
2021/04/03 11:35:35;;;;;;;1.30;1.00;;;17.40;24.30;;;;;;6226877;28;20606;-59
2021/04/03 11:38:37;;;;;;;2.63;1.13;;;17.00;24.60;;;;;;6227079;28;20468;-58
2021/04/03 11:41:39;;;;;;;0.93;0.70;;;16.70;24.30;;;;;;6227169;28;20483;-59
2021/04/03 11:44:42;;;;;;;0.80;0.80;;;16.60;24.20;;;;;;6226409;28;20969;-59
2021/04/03 11:47:45;;;;;;;1.70;1.00;;;17.10;24.80;;;;;;6226643;28;20483;-59
2021/04/03 11:50:47;;;;;;;0.70;0.70;;;16.90;25.10;;;;;;6226426;28;20464;-59
2021/04/03 11:53:50;;;;;;;1.13;0.80;;;16.80;25.30;;;;;;6226168;28;20480;-59
2021/04/03 11:56:52;;;;;;;1.40;1.00;;;16.60;25.60;;;;;;6226986;28;20526;-59
2021/04/03 11:59:55;;;;;;;1.63;1.13;;;16.40;26.00;;;;;;6225670;28;20491;-58
2021/04/03 12:02:57;;;;;;;1.27;0.80;;;16.10;26.80;;;;;;6226329;28;20480;-58
2021/04/03 12:06:00;;;;;;;0.80;0.70;;;15.70;26.90;;;;;;6226032;28;20963;-58
2021/04/03 12:09:03;;;;;;;1.10;1.00;;;15.40;27.90;;;;;;6226468;28;20983;-58
2021/04/03 12:12:07;;;;;;;2.50;1.20;;;15.30;28.90;;;;;;6226786;28;20511;-59
2021/04/03 12:15:12;;;;;;;1.37;1.20;;;15.40;30.00;;;;;;6225711;28;20759;-60
2021/04/03 12:18:18;;;;;;;1.60;1.40;;;15.90;30.00;;;;;;6225712;28;20433;-60
2021/04/03 12:21:20;;;;;;;1.33;0.80;;;16.40;29.40;;;;;;6226144;28;20537;-60
2021/04/03 12:24:22;;;;;;;1.10;1.00;;;16.20;28.60;;;;;;6225555;28;20464;-60
2021/04/03 12:27:24;;;;;;;1.20;1.10;;;16.30;29.50;;;;;;6221028;28;20801;-59
2021/04/03 12:30:27;;;;;;;1.13;1.03;;;16.00;30.00;;;;;;6225958;28;20448;-60
2021/04/03 12:33:29;;;;;;;0.97;0.93;;;15.30;33.60;;;;;;6225927;28;20452;-60
2021/04/03 12:36:31;;;;;;;1.00;0.90;;;15.10;37.00;;;;;;6225519;28;20926;-59
2021/04/03 12:39:34;;;;;;;1.27;0.70;;;15.20;37.30;;;;;;6225395;28;20774;-60
2021/04/03 12:42:36;;;;;;;0.77;0.70;;;15.50;35.70;;;;;;6225294;28;20530;-59
2021/04/03 12:45:39;;;;;;;2.47;0.70;;;15.70;35.00;;;;;;6225604;28;20475;-60
2021/04/03 12:48:42;;;;;;;0.90;0.70;;;15.70;33.90;;;;;;6225758;28;20464;-60
2021/04/03 12:51:44;;;;;;;0.70;0.60;;;15.60;32.90;;;;;;6225552;28;20491;-60
2021/04/03 12:54:48;;;;;;;0.73;0.70;;;15.40;32.80;;;;;;6225185;28;20526;-59
2021/04/03 12:57:50;;;;;;;1.73;0.90;;;15.40;33.20;;;;;;6225143;28;20830;-60
2021/04/03 13:00:53;;;;;;;0.77;0.77;;;15.50;33.40;;;;;;6225329;28;20487;-59
2021/04/03 13:03:55;;;;;;;0.77;0.77;;;15.60;32.20;;;;;;6225577;28;20486;-59
2021/04/03 13:06:58;;;;;;;1.27;0.80;;;15.80;32.80;;;;;;6225185;28;20986;-58
2021/04/03 13:10:01;;;;;;;2.00;0.60;;;15.80;31.60;;;;;;6225248;28;20464;-58
2021/04/03 13:13:03;;;;;;;0.70;0.60;;;15.60;30.70;;;;;;6227812;28;20475;-58
2021/04/03 13:16:06;;;;;;;2.30;0.83;;;15.50;32.10;;;;;;6230307;28;20476;-58
2021/04/03 13:19:09;;;;;;;1.03;0.70;;;15.50;31.80;;;;;;6230528;28;20472;-59
2021/04/03 13:22:11;;;;;;;0.70;0.70;;;15.50;31.20;;;;;;6229906;28;20992;-59
2021/04/03 13:25:13;;;;;;;0.60;0.60;;;15.60;31.50;;;;;;6229901;28;20827;-59
2021/04/03 13:28:15;;;;;;;1.57;0.70;;;15.60;30.60;;;;;;6229927;28;20486;-59
2021/04/03 13:31:19;;;;;;;0.80;0.70;;;15.70;30.50;;;;;;6229896;28;20964;-59
2021/04/03 13:34:22;;;;;;;0.77;0.53;;;15.90;30.70;;;;;;6220835;28;20476;-59
2021/04/03 13:37:24;;;;;;;0.80;0.50;;;15.90;29.90;;;;;;6229582;28;20921;-61
2021/04/03 13:40:26;;;;;;;0.50;0.40;;;15.80;29.90;;;;;;6229806;28;20479;-59
2021/04/03 13:43:30;;;;;;;1.43;0.60;;;15.80;29.90;;;;;;6229249;28;20581;-60
2021/04/03 13:46:34;;;;;;;1.40;1.00;;;15.70;30.50;;;;;;6229420;28;20480;-59
2021/04/03 13:49:37;;;;;;;1.10;1.00;;;15.80;29.90;;;;;;6229231;28;20487;-59
2021/04/03 13:52:39;;;;;;;0.80;0.63;;;15.90;29.60;;;;;;6229456;28;20474;-59
2021/04/03 13:55:41;;;;;;;0.53;0.53;;;15.80;29.20;;;;;;6229661;28;20472;-59
2021/04/03 13:58:43;;;;;;;1.67;0.90;;;15.50;29.80;;;;;;6229175;28;20478;-60
2021/04/03 14:01:47;;;;;;;0.90;0.60;;;15.40;30.00;;;;;;6229402;28;20503;-59
2021/04/03 14:04:49;;;;;;;1.80;0.70;;;15.20;30.50;;;;;;6229522;28;20476;-60
2021/04/03 14:07:51;;;;;;;1.10;0.77;;;15.10;32.10;;;;;;6229026;28;20843;-59
2021/04/03 14:10:54;;;;;;;1.23;1.13;;;14.90;31.40;;;;;;6229489;28;20476;-59
2021/04/03 14:13:56;;;;;;;0.57;0.57;;;14.80;32.20;;;;;;6228592;28;20497;-59
2021/04/03 14:17:01;;;;;;;1.97;0.90;;;14.60;32.40;;;;;;6229254;28;20468;-59
2021/04/03 14:20:15;;;;;;;0.97;0.90;;;14.50;32.80;;;;;;6228659;28;20533;-59
2021/04/03 14:23:20;;;;;;;2.10;1.00;;;14.20;33.00;;;;;;6227521;28;20483;-59
2021/04/03 14:26:23;;;;;;;1.40;1.20;;;14.00;34.00;;;;;;6228900;28;20495;-59
2021/04/03 14:29:25;;;;;;;1.70;0.90;;;13.80;34.40;;;;;;6228457;28;20568;-59
2021/04/03 14:32:28;;;;;;;1.53;0.80;;;13.50;35.10;;;;;;6228798;28;20464;-60
2021/04/03 14:35:30;;;;;;;1.10;0.70;;;13.50;35.20;;;;;;6228311;28;20484;-59
2021/04/03 14:38:32;;;;;;;1.17;0.80;;;13.70;35.60;;;;;;6219170;28;20480;-59
2021/04/03 14:41:35;;;;;;;0.70;0.70;;;13.90;35.40;;;;;;6228137;28;20641;-59
2021/04/03 14:44:37;;;;;;;0.87;0.67;;;13.80;34.30;;;;;;6227777;28;20824;-59
2021/04/03 14:47:40;;;;;;;0.70;0.70;;;13.70;35.00;;;;;;6227990;28;20476;-59
2021/04/03 14:50:43;;;;;;;0.63;0.63;;;13.70;34.70;;;;;;6228125;28;20483;-59
2021/04/03 14:53:45;;;;;;;0.87;0.83;;;13.60;35.10;;;;;;6228040;28;20495;-59
2021/04/03 14:56:47;;;;;;;0.90;0.70;;;13.50;35.10;;;;;;6227870;28;20480;-59
2021/04/03 14:59:50;;;;;;;1.30;1.20;;;13.30;35.70;;;;;;6227735;28;20506;-61
2021/04/03 15:02:52;;;;;;;1.80;1.20;;;13.10;35.80;;;;;;6227748;28;20476;-60
2021/04/03 15:05:55;;;;;;;1.03;1.03;;;13.00;36.50;;;;;;6227635;28;20472;-61
2021/04/03 15:08:57;;;;;;;1.20;0.90;;;12.70;36.40;;;;;;6227482;28;20828;-61
2021/04/03 15:12:00;;;;;;;1.10;0.93;;;12.70;37.50;;;;;;6227812;28;20525;-61
2021/04/03 15:15:03;;;;;;;1.77;0.97;;;12.70;37.70;;;;;;6227377;28;20479;-60
2021/04/03 15:18:06;;;;;;;0.90;0.90;;;12.60;38.70;;;;;;6227445;28;20491;-60
2021/04/03 15:21:08;;;;;;;1.70;0.87;;;12.50;38.90;;;;;;6227171;28;20484;-59
2021/04/03 15:24:11;;;;;;;1.00;0.70;;;12.30;38.80;;;;;;6227080;28;20476;-59
2021/04/03 15:27:13;;;;;;;0.93;0.83;;;12.30;38.80;;;;;;6227142;28;20468;-58
2021/04/03 15:30:16;;;;;;;0.87;0.83;;;12.30;38.80;;;;;;6227350;28;20476;-60
2021/04/03 15:33:19;;;;;;;1.53;0.97;;;12.20;39.30;;;;;;6202343;28;20790;-60
2021/04/03 15:36:22;;;;;;;0.97;0.97;;;12.10;39.30;;;;;;6202696;28;20449;-61
2021/04/03 15:39:28;;;;;;;0.73;0.73;;;12.00;38.50;;;;;;6203252;28;20449;-61
2021/04/03 15:42:30;;;;;;;2.40;0.90;;;11.90;39.70;;;;;;6202634;28;20488;-60
2021/04/03 15:45:32;;;;;;;1.00;1.00;;;11.80;39.70;;;;;;6202592;28;20436;-60